createdAt,value
2024-02-20T00:02:02.157Z,3.72
2024-02-20T00:04:29.188Z,2.80
2024-02-20T00:06:56.005Z,4.90
2024-02-20T00:09:22.746Z,2.35
2024-02-20T00:11:49.427Z,4.10
2024-02-20T00:14:16.089Z,2.63
2024-02-20T00:16:42.928Z,3.80
2024-02-20T00:19:09.812Z,2.10
2024-02-20T00:21:36.543Z,4.20
2024-02-20T00:24:03.370Z,6.07
2024-02-20T00:26:30.067Z,2.60
2024-02-20T00:28:56.976Z,8.88
2024-02-20T00:31:23.670Z,3.65
2024-02-20T00:33:50.404Z,4.78
2024-02-20T00:36:17.165Z,4.38
2024-02-20T00:38:43.869Z,14.07
2024-02-20T00:41:10.517Z,6.28
2024-02-20T00:43:37.243Z,5.53
2024-02-20T00:46:04.501Z,7.13
2024-02-20T00:48:31.518Z,4.95
2024-02-20T00:50:58.857Z,5.75
2024-02-20T00:53:25.517Z,3.70
2024-02-20T00:55:52.202Z,5.93
2024-02-20T00:58:19.372Z,3.42
2024-02-20T01:00:46.205Z,9.55
2024-02-20T01:03:13.139Z,2.53
2024-02-20T01:05:39.902Z,2.72
2024-02-20T01:08:06.765Z,4.40
2024-02-20T01:10:33.969Z,1.95
2024-02-20T01:13:01.411Z,7.38
2024-02-20T01:15:28.237Z,5.68
2024-02-20T01:17:54.900Z,3.38
2024-02-20T01:20:21.533Z,7.65
2024-02-20T01:22:48.784Z,5.82
2024-02-20T01:25:15.520Z,5.25
2024-02-20T01:27:43.014Z,4.65
2024-02-20T01:30:09.820Z,5.13
2024-02-20T01:32:36.482Z,9.27
2024-02-20T01:35:04.942Z,4.93
2024-02-20T01:37:31.744Z,4.35
2024-02-20T01:39:58.424Z,3.97
2024-02-20T01:42:26.161Z,4.13
2024-02-20T01:44:52.836Z,6.63
2024-02-20T01:47:19.553Z,5.03
2024-02-20T01:49:47.579Z,1.90
2024-02-20T01:52:16.071Z,4.97
2024-02-20T01:54:43.120Z,7.88
2024-02-20T01:57:12.090Z,2.22
2024-02-20T01:59:38.951Z,1.88
2024-02-20T02:02:07.545Z,4.60
2024-02-20T02:04:34.660Z,7.53
2024-02-20T02:07:01.555Z,3.08
2024-02-20T02:09:28.256Z,3.40
2024-02-20T02:11:55.060Z,6.85
2024-02-20T02:14:21.734Z,7.30
2024-02-20T02:16:48.372Z,5.03
2024-02-20T02:19:15.269Z,3.90
2024-02-20T02:21:42.113Z,5.65
2024-02-20T02:24:10.317Z,4.03
2024-02-20T02:26:37.177Z,5.57
2024-02-20T02:29:03.975Z,7.35
2024-02-20T02:31:30.999Z,3.30
2024-02-20T02:33:57.812Z,4.80
2024-02-20T02:36:27.673Z,3.88
2024-02-20T02:38:54.525Z,6.68
2024-02-20T02:41:22.756Z,3.67
2024-02-20T02:43:51.783Z,12.65
2024-02-20T02:46:19.116Z,7.68
2024-02-20T02:48:45.973Z,16.70
2024-02-20T02:51:12.709Z,9.90
2024-02-20T02:53:40.977Z,9.20
2024-02-20T02:56:12.778Z,7.22
2024-02-20T02:58:40.041Z,4.32
2024-02-20T03:01:07.276Z,7.70
2024-02-20T03:03:34.621Z,5.40
2024-02-20T03:06:09.696Z,5.47
2024-02-20T03:11:09.083Z,13.30
2024-02-20T03:13:36.070Z,4.10
2024-02-20T03:16:09.293Z,10.20
2024-02-20T03:18:39.283Z,6.65
2024-02-20T03:21:12.144Z,8.32
2024-02-20T03:23:38.824Z,8.68
2024-02-20T03:26:05.683Z,4.75
2024-02-20T03:28:32.724Z,6.18
2024-02-20T03:30:59.937Z,9.52
2024-02-20T03:33:30.203Z,6.30
2024-02-20T03:35:58.605Z,8.95
2024-02-20T03:38:25.706Z,1.95
2024-02-20T03:40:52.838Z,5.50
2024-02-20T03:43:19.628Z,4.95
2024-02-20T03:45:46.430Z,6.80
2024-02-20T03:48:13.428Z,2.22
2024-02-20T03:50:40.428Z,9.93
2024-02-20T03:53:08.247Z,5.13
2024-02-20T03:55:35.375Z,6.80
2024-02-20T03:58:02.442Z,5.55
2024-02-20T04:00:29.303Z,24.00
2024-02-20T04:02:58.007Z,12.70
2024-02-20T04:05:25.106Z,16.70
2024-02-20T04:07:51.904Z,8.75
2024-02-20T04:10:19.174Z,21.02
2024-02-20T04:12:46.211Z,24.83
2024-02-20T04:15:14.677Z,28.92
2024-02-20T04:17:41.693Z,16.60
2024-02-20T04:20:10.215Z,18.35
2024-02-20T04:22:38.671Z,23.23
2024-02-20T04:25:06.736Z,28.75
2024-02-20T04:27:33.944Z,28.23
2024-02-20T04:30:00.794Z,21.85
2024-02-20T04:32:27.486Z,18.92
2024-02-20T04:34:54.391Z,28.80
2024-02-20T04:37:21.935Z,21.20
2024-02-20T04:39:48.651Z,31.17
2024-02-20T04:42:15.390Z,20.38
2024-02-20T04:44:42.335Z,19.35
2024-02-20T04:47:09.007Z,20.98
2024-02-20T04:49:35.743Z,17.35
2024-02-20T04:52:02.514Z,20.88
2024-02-20T04:54:29.194Z,31.63
2024-02-20T04:56:56.723Z,19.15
2024-02-20T04:59:24.186Z,17.60
2024-02-20T05:01:51.833Z,16.48
2024-02-20T05:04:18.850Z,41.15
2024-02-20T05:06:46.440Z,23.05
2024-02-20T05:09:15.012Z,23.08
2024-02-20T05:11:42.653Z,21.17
2024-02-20T05:14:09.500Z,22.17
2024-02-20T05:16:36.228Z,23.35
2024-02-20T05:19:03.119Z,17.95
2024-02-20T05:21:29.944Z,30.13
2024-02-20T05:23:56.620Z,23.40
2024-02-20T05:26:23.384Z,25.73
2024-02-20T05:28:50.163Z,27.13
2024-02-20T05:31:30.596Z,29.10
2024-02-20T05:34:01.403Z,15.38
2024-02-20T05:36:32.518Z,17.05
2024-02-20T05:39:03.111Z,25.75
2024-02-20T05:41:30.900Z,21.88
2024-02-20T05:43:59.304Z,26.58
2024-02-20T05:46:27.927Z,13.50
2024-02-20T05:48:55.558Z,24.77
2024-02-20T05:51:24.470Z,26.10
2024-02-20T05:53:51.563Z,14.48
2024-02-20T05:56:18.995Z,22.52
2024-02-20T05:58:45.710Z,24.02
2024-02-20T06:01:12.841Z,34.95
2024-02-20T06:03:39.758Z,33.72
2024-02-20T06:06:07.960Z,22.83
2024-02-20T06:08:35.802Z,25.02
2024-02-20T06:11:02.788Z,26.65
2024-02-20T06:13:29.540Z,24.13
2024-02-20T06:15:56.209Z,24.25
2024-02-20T06:18:22.961Z,23.95
2024-02-20T06:20:50.376Z,32.63
2024-02-20T06:23:17.115Z,29.45
2024-02-20T06:25:44.869Z,26.92
2024-02-20T06:28:14.339Z,27.30
2024-02-20T06:30:42.295Z,24.13
2024-02-20T06:33:09.035Z,20.27
2024-02-20T06:35:35.753Z,19.35
2024-02-20T06:38:02.394Z,20.60
2024-02-20T06:40:29.736Z,37.10
2024-02-20T06:42:56.758Z,36.15
2024-02-20T06:45:23.566Z,25.88
2024-02-20T06:47:50.310Z,31.13
2024-02-20T06:50:17.738Z,25.05
2024-02-20T06:52:44.820Z,24.30
2024-02-20T06:55:11.813Z,23.27
2024-02-20T06:57:40.954Z,28.25
2024-02-20T07:00:13.111Z,40.92
2024-02-20T07:02:41.881Z,19.85
2024-02-20T07:05:09.607Z,35.50
2024-02-20T07:07:36.482Z,31.98
2024-02-20T07:10:05.117Z,42.47
2024-02-20T07:12:31.918Z,22.90
2024-02-20T07:14:58.617Z,41.80
2024-02-20T07:17:26.835Z,26.42
2024-02-20T07:19:56.046Z,34.42
2024-02-20T07:22:23.287Z,46.33
2024-02-20T07:24:49.970Z,43.03
2024-02-20T07:27:16.596Z,33.10
2024-02-20T07:29:43.737Z,36.20
2024-02-20T07:32:11.614Z,36.03
2024-02-20T07:34:42.300Z,41.70
2024-02-20T07:37:09.330Z,39.22
2024-02-20T07:39:37.762Z,20.40
2024-02-20T07:42:04.988Z,32.50
2024-02-20T07:44:31.611Z,38.97
2024-02-20T07:46:58.280Z,25.77
2024-02-20T07:49:25.031Z,43.88
2024-02-20T07:51:51.835Z,37.25
2024-02-20T07:54:18.576Z,48.30
2024-02-20T07:56:46.962Z,43.83
2024-02-20T07:59:14.111Z,48.08
2024-02-20T08:01:41.145Z,48.63
2024-02-20T08:04:08.042Z,46.28
2024-02-20T08:06:34.908Z,33.45
2024-02-20T08:09:01.769Z,39.70
2024-02-20T08:11:28.996Z,38.40
2024-02-20T08:13:55.770Z,37.65
2024-02-20T08:16:22.596Z,27.27
2024-02-20T08:18:49.602Z,31.38
2024-02-20T08:21:16.374Z,32.53
2024-02-20T08:23:45.882Z,38.05
2024-02-20T08:26:13.298Z,35.28
2024-02-20T08:28:42.953Z,37.75
2024-02-20T08:31:10.577Z,36.28
2024-02-20T08:33:37.644Z,34.67
2024-02-20T08:36:05.217Z,28.33
2024-02-20T08:38:31.874Z,34.08
2024-02-20T08:40:58.609Z,29.42
2024-02-20T08:43:25.507Z,36.20
2024-02-20T08:45:52.238Z,27.30
2024-02-20T08:48:19.036Z,25.45
2024-02-20T08:50:45.902Z,32.17
2024-02-20T08:53:12.677Z,29.73
2024-02-20T08:55:40.529Z,38.15
2024-02-20T08:58:07.612Z,33.80
2024-02-20T09:00:34.556Z,34.83
2024-02-20T09:03:01.283Z,42.22
2024-02-20T09:05:28.099Z,32.97
2024-02-20T09:07:54.975Z,35.38
2024-02-20T09:10:21.786Z,39.72
2024-02-20T09:12:48.409Z,32.42
2024-02-20T09:15:15.126Z,34.70
2024-02-20T09:17:41.853Z,25.35
2024-02-20T09:20:11.447Z,33.83
2024-02-20T09:22:39.866Z,24.85
2024-02-20T09:25:09.804Z,42.13
2024-02-20T09:27:43.501Z,43.78
2024-02-20T09:30:11.900Z,28.73
2024-02-20T09:32:41.100Z,31.83
2024-02-20T09:35:09.155Z,41.75
2024-02-20T09:37:35.936Z,23.40
2024-02-20T09:40:05.538Z,28.70
2024-02-20T09:42:43.130Z,32.83
2024-02-20T09:45:18.226Z,29.40
2024-02-20T09:47:48.524Z,19.27
2024-02-20T09:50:21.408Z,40.75
2024-02-20T09:52:57.579Z,33.22
2024-02-20T09:55:25.802Z,34.92
2024-02-20T09:57:52.755Z,43.15
2024-02-20T10:00:20.538Z,29.70
2024-02-20T10:02:47.693Z,30.23
2024-02-20T10:05:18.922Z,31.45
2024-02-20T10:07:46.505Z,24.85
2024-02-20T10:10:17.428Z,20.38
2024-02-20T10:12:45.870Z,29.83
2024-02-20T10:15:16.526Z,24.83
2024-02-20T10:17:43.514Z,18.60
2024-02-20T10:20:12.443Z,29.15
2024-02-20T10:22:42.370Z,42.65
2024-02-20T10:25:13.525Z,17.48
2024-02-20T10:27:41.597Z,31.13
2024-02-20T10:30:09.165Z,24.30
2024-02-20T10:32:37.468Z,24.67
2024-02-20T10:35:06.800Z,19.25
2024-02-20T10:37:33.656Z,17.83
2024-02-20T10:40:17.819Z,24.40
2024-02-20T10:42:56.620Z,22.27
2024-02-20T10:45:24.321Z,14.70
2024-02-20T10:47:53.819Z,22.80
2024-02-20T10:50:21.550Z,22.45
2024-02-20T10:52:51.726Z,26.38
2024-02-20T10:55:27.773Z,17.13
2024-02-20T10:58:02.194Z,20.33
2024-02-20T11:00:32.912Z,16.30
2024-02-20T11:03:00.994Z,14.90
2024-02-20T11:05:31.283Z,15.45
2024-02-20T11:08:07.475Z,16.85
2024-02-20T11:10:36.637Z,13.60
2024-02-20T11:13:23.101Z,26.50
2024-02-20T11:15:51.181Z,18.45
2024-02-20T11:18:20.200Z,29.17
2024-02-20T11:21:09.043Z,22.42
2024-02-20T11:23:38.526Z,38.55
2024-02-20T11:26:07.796Z,33.65
2024-02-20T11:28:35.712Z,24.27
2024-02-20T11:31:04.246Z,27.48
2024-02-20T11:33:32.471Z,26.30
2024-02-20T11:36:02.094Z,21.88
2024-02-20T11:38:28.855Z,17.25
2024-02-20T11:40:57.207Z,26.63
2024-02-20T11:43:26.919Z,35.83
2024-02-20T11:46:00.832Z,43.10
2024-02-20T11:48:27.742Z,24.48
2024-02-20T11:50:58.301Z,18.83
2024-02-20T11:53:25.423Z,27.60
2024-02-20T11:55:53.294Z,13.38
2024-02-20T11:58:26.507Z,12.40
2024-02-20T12:00:56.229Z,28.42
2024-02-20T12:03:31.709Z,17.70
2024-02-20T12:06:07.294Z,30.48
2024-02-20T12:08:46.360Z,19.10
2024-02-20T12:11:23.346Z,24.48
2024-02-20T12:13:54.305Z,30.42
2024-02-20T12:16:28.422Z,29.20
2024-02-20T12:19:03.040Z,18.48
2024-02-20T12:21:34.834Z,27.38
2024-02-20T12:24:04.186Z,26.77
2024-02-20T12:26:30.914Z,32.28
2024-02-20T12:28:59.130Z,26.42
2024-02-20T12:31:27.679Z,20.05
2024-02-20T12:33:54.907Z,30.70
2024-02-20T12:36:22.200Z,25.63
2024-02-20T12:38:48.877Z,25.23
2024-02-20T12:41:15.615Z,20.50
2024-02-20T12:43:42.584Z,16.92
2024-02-20T12:46:09.527Z,28.90
2024-02-20T12:48:36.428Z,31.63
2024-02-20T12:51:03.397Z,30.65
2024-02-20T12:53:30.173Z,23.85
2024-02-20T12:55:57.831Z,18.00
2024-02-20T12:58:27.546Z,18.67
2024-02-20T13:00:54.262Z,23.85
2024-02-20T13:03:20.928Z,17.98
2024-02-20T13:05:47.869Z,17.48
2024-02-20T13:08:14.629Z,22.83
2024-02-20T13:10:42.536Z,21.45
2024-02-20T13:13:11.031Z,16.90
2024-02-20T13:15:37.933Z,16.77
2024-02-20T13:18:04.787Z,23.17
2024-02-20T13:20:32.669Z,14.73
2024-02-20T13:23:00.120Z,17.13
2024-02-20T13:25:26.941Z,22.35
2024-02-20T13:27:53.843Z,20.77
2024-02-20T13:30:20.785Z,22.25
2024-02-20T13:32:47.816Z,23.13
2024-02-20T13:35:19.883Z,14.13
2024-02-20T13:37:50.028Z,24.70
2024-02-20T13:40:18.737Z,20.15
2024-02-20T13:42:45.869Z,27.27
2024-02-20T13:45:12.604Z,32.47
2024-02-20T13:47:39.335Z,21.38
2024-02-20T13:50:06.673Z,24.40
2024-02-20T13:52:33.713Z,17.50
2024-02-20T13:55:00.596Z,24.55
2024-02-20T13:57:27.468Z,23.45
2024-02-20T13:59:54.146Z,31.42
2024-02-20T14:02:21.070Z,32.35
2024-02-20T14:04:48.385Z,26.20
2024-02-20T14:07:15.708Z,36.05
2024-02-20T14:09:42.661Z,24.55
2024-02-20T14:12:09.875Z,36.45
2024-02-20T14:14:36.569Z,30.60
2024-02-20T14:17:03.367Z,19.80
2024-02-20T14:19:30.755Z,29.08
2024-02-20T14:21:57.556Z,27.85
2024-02-20T14:24:24.377Z,24.63
2024-02-20T14:26:53.288Z,33.72
2024-02-20T14:29:21.673Z,28.73
2024-02-20T14:31:49.018Z,27.30
2024-02-20T14:34:16.619Z,28.55
2024-02-20T14:36:43.837Z,29.63
2024-02-20T14:39:10.658Z,20.55
2024-02-20T14:41:37.312Z,30.98
2024-02-20T14:44:04.157Z,37.85
2024-02-20T14:46:31.404Z,30.20
2024-02-20T14:48:58.330Z,26.35
2024-02-20T14:51:24.989Z,23.10
2024-02-20T14:53:51.893Z,32.50
2024-02-20T14:56:18.548Z,23.27
2024-02-20T14:58:45.271Z,41.42
2024-02-20T15:01:12.221Z,30.33
2024-02-20T15:03:38.990Z,26.88
2024-02-20T15:06:07.421Z,38.70
2024-02-20T15:08:34.718Z,27.95
2024-02-20T15:11:02.268Z,35.17
2024-02-20T15:13:31.493Z,25.45
2024-02-20T15:15:58.576Z,32.75
2024-02-20T15:18:29.140Z,31.60
2024-02-20T15:20:56.290Z,37.67
2024-02-20T15:23:23.147Z,28.00
2024-02-20T15:25:50.423Z,28.08
2024-02-20T15:28:17.598Z,26.70
2024-02-20T15:30:44.391Z,39.40
2024-02-20T15:33:11.255Z,21.20
2024-02-20T15:35:38.133Z,28.50
2024-02-20T15:38:05.208Z,23.55
2024-02-20T15:40:36.446Z,26.33
2024-02-20T15:43:03.172Z,27.23
2024-02-20T15:45:29.908Z,25.05
2024-02-20T15:47:58.175Z,30.85
2024-02-20T15:50:25.078Z,29.40
2024-02-20T15:52:52.007Z,18.30
2024-02-20T15:55:19.808Z,30.95
2024-02-20T15:57:47.792Z,20.10
2024-02-20T16:00:14.956Z,20.40
2024-02-20T16:02:41.680Z,28.20
2024-02-20T16:05:10.239Z,23.52
2024-02-20T16:07:37.255Z,33.45
2024-02-20T16:10:04.533Z,31.58
2024-02-20T16:12:31.373Z,19.92
2024-02-20T16:15:01.063Z,23.60
2024-02-20T16:17:28.696Z,25.98
2024-02-20T16:19:57.409Z,32.10
2024-02-20T16:22:24.155Z,27.70
2024-02-20T16:24:50.873Z,30.08
2024-02-20T16:27:17.760Z,45.88
2024-02-20T16:29:46.780Z,28.00
2024-02-20T16:32:13.563Z,32.90
2024-02-20T16:34:40.462Z,30.40
2024-02-20T16:37:07.428Z,38.85
2024-02-20T16:39:35.414Z,22.65
2024-02-20T16:42:02.177Z,27.13
2024-02-20T16:44:28.914Z,33.58
2024-02-20T16:46:55.860Z,34.53
2024-02-20T16:49:22.667Z,17.33
2024-02-20T16:51:49.422Z,16.58
2024-02-20T16:54:16.088Z,26.77
2024-02-20T16:56:42.840Z,28.17
2024-02-20T16:59:09.555Z,62.92
2024-02-20T17:01:36.293Z,214.30
2024-02-20T17:04:03.018Z,395.25
2024-02-20T17:06:29.844Z,563.97
2024-02-20T17:08:58.512Z,649.42
2024-02-20T17:11:25.333Z,407.55
2024-02-20T17:13:52.200Z,416.48
2024-02-20T17:16:19.176Z,279.50
2024-02-20T17:18:45.836Z,289.98
2024-02-20T17:21:14.382Z,260.73
2024-02-20T17:23:41.166Z,134.20
2024-02-20T17:26:08.680Z,272.33
2024-02-20T17:28:36.261Z,215.30
2024-02-20T17:31:05.185Z,84.55
2024-02-20T17:33:32.733Z,68.07
2024-02-20T17:36:02.084Z,45.47
2024-02-20T17:38:29.242Z,52.15
2024-02-20T17:40:56.213Z,82.65
2024-02-20T17:43:23.153Z,61.97
2024-02-20T17:45:50.024Z,45.85
2024-02-20T17:48:16.815Z,48.97
2024-02-20T17:50:43.846Z,45.70
2024-02-20T17:53:10.510Z,26.90
2024-02-20T17:55:37.161Z,51.42
2024-02-20T17:58:04.153Z,46.15
2024-02-20T18:00:31.763Z,40.42
2024-02-20T18:02:58.423Z,50.78
2024-02-20T18:05:25.090Z,196.75
2024-02-20T18:07:51.863Z,60.95
2024-02-20T18:10:18.694Z,56.95
2024-02-20T18:12:45.402Z,53.42
2024-02-20T18:15:12.117Z,35.60
2024-02-20T18:17:38.831Z,28.02
2024-02-20T18:20:08.759Z,26.25
2024-02-20T18:22:35.449Z,19.50
2024-02-20T18:25:02.176Z,32.00
2024-02-20T18:27:28.830Z,21.70
2024-02-20T18:29:55.436Z,27.42
2024-02-20T18:32:22.560Z,39.47
2024-02-20T18:34:49.436Z,39.58
2024-02-20T18:37:16.901Z,22.48
2024-02-20T18:39:50.181Z,30.67
2024-02-20T18:42:16.892Z,25.20
2024-02-20T18:44:43.603Z,21.55
2024-02-20T18:47:10.337Z,28.60
2024-02-20T18:49:37.229Z,29.05
2024-02-20T18:52:04.289Z,19.17
2024-02-20T18:54:32.594Z,23.23
2024-02-20T18:57:00.030Z,20.13
2024-02-20T18:59:27.000Z,23.67
2024-02-20T19:01:56.807Z,29.58
2024-02-20T19:04:24.322Z,24.10
2024-02-20T19:06:51.104Z,20.60
2024-02-20T19:09:17.995Z,30.27
2024-02-20T19:11:45.697Z,41.47
2024-02-20T19:14:16.126Z,17.73
2024-02-20T19:16:43.441Z,35.53
2024-02-20T19:19:10.963Z,26.90
2024-02-20T19:21:38.045Z,31.60
2024-02-20T19:24:05.351Z,36.75
2024-02-20T19:26:35.970Z,25.70
2024-02-20T19:29:03.023Z,35.10
2024-02-20T19:31:29.759Z,32.10
2024-02-20T19:33:56.508Z,28.20
2024-02-20T19:36:23.196Z,25.95
2024-02-20T19:38:49.926Z,33.90
2024-02-20T19:41:20.422Z,29.90
2024-02-20T19:43:49.002Z,46.13
2024-02-20T19:46:17.424Z,27.67
2024-02-20T19:48:45.750Z,28.42
2024-02-20T19:51:12.404Z,22.95
2024-02-20T19:53:39.144Z,26.33
2024-02-20T19:56:06.303Z,24.33
2024-02-20T19:58:34.875Z,22.48
2024-02-20T20:01:02.452Z,26.17
2024-02-20T20:03:30.225Z,24.08
2024-02-20T20:05:57.013Z,27.70
2024-02-20T20:08:24.249Z,18.00
2024-02-20T20:10:51.214Z,26.20
2024-02-20T20:13:18.614Z,19.92
2024-02-20T20:15:46.664Z,26.80
2024-02-20T20:18:14.306Z,32.47
2024-02-20T20:20:41.728Z,19.92
2024-02-20T20:23:08.557Z,21.92
2024-02-20T20:25:35.629Z,23.70
2024-02-20T20:28:02.706Z,29.10
2024-02-20T20:30:29.455Z,32.97
2024-02-20T20:32:56.302Z,22.20
2024-02-20T20:35:23.350Z,46.22
2024-02-20T20:37:53.715Z,27.02
2024-02-20T20:40:21.254Z,29.05
2024-02-20T20:42:49.308Z,30.20
2024-02-20T20:45:19.682Z,34.75
2024-02-20T20:47:46.343Z,27.30
2024-02-20T20:50:13.137Z,28.13
2024-02-20T20:52:39.924Z,27.92
2024-02-20T20:55:07.112Z,23.10
2024-02-20T20:57:33.876Z,25.17
2024-02-20T21:00:00.875Z,25.55
2024-02-20T21:02:27.609Z,27.92
2024-02-20T21:04:54.376Z,23.77
2024-02-20T21:07:21.152Z,29.25
2024-02-20T21:09:47.807Z,43.47
2024-02-20T21:12:14.493Z,33.08
2024-02-20T21:14:41.502Z,25.92
2024-02-20T21:17:08.874Z,44.13
2024-02-20T21:19:35.677Z,39.97
2024-02-20T21:22:02.535Z,21.90
2024-02-20T21:24:29.158Z,23.48
2024-02-20T21:26:55.862Z,37.35
2024-02-20T21:29:26.370Z,31.75
2024-02-20T21:31:53.120Z,39.22
2024-02-20T21:34:19.900Z,29.27
2024-02-20T21:36:47.179Z,38.92
2024-02-20T21:39:14.316Z,28.13
2024-02-20T21:41:41.124Z,39.33
2024-02-20T21:44:09.179Z,28.38
2024-02-20T21:46:35.854Z,28.23
2024-02-20T21:49:02.637Z,55.83
2024-02-20T21:51:29.981Z,26.33
2024-02-20T21:53:56.774Z,36.40
2024-02-20T21:56:23.480Z,33.25
2024-02-20T21:58:50.336Z,34.38
2024-02-20T22:01:17.203Z,22.98
2024-02-20T22:03:44.894Z,37.75
2024-02-20T22:06:11.680Z,22.90
2024-02-20T22:08:41.916Z,37.20
2024-02-20T22:11:08.916Z,30.60
2024-02-20T22:13:36.192Z,35.63
2024-02-20T22:16:02.908Z,26.05
2024-02-20T22:18:29.676Z,31.98
2024-02-20T22:20:56.559Z,33.45
2024-02-20T22:23:23.196Z,28.25
2024-02-20T22:25:49.914Z,26.65
2024-02-20T22:28:16.811Z,22.50
2024-02-20T22:30:43.568Z,23.15
2024-02-20T22:33:10.380Z,29.15
2024-02-20T22:35:37.126Z,28.90
2024-02-20T22:38:04.190Z,28.63
2024-02-20T22:40:31.551Z,29.55
2024-02-20T22:42:58.569Z,44.60
2024-02-20T22:45:25.292Z,33.95
2024-02-20T22:47:52.299Z,27.60
2024-02-20T22:50:19.283Z,32.90
2024-02-20T22:52:46.129Z,37.63
2024-02-20T22:55:12.838Z,24.60
2024-02-20T22:57:39.731Z,21.85
2024-02-20T23:00:09.461Z,28.25
2024-02-20T23:02:37.111Z,28.15
2024-02-20T23:05:04.447Z,40.17
2024-02-20T23:07:31.403Z,32.45
2024-02-20T23:09:58.143Z,25.98
2024-02-20T23:12:25.225Z,35.83
2024-02-20T23:14:52.031Z,22.60
2024-02-20T23:17:18.750Z,37.83
2024-02-20T23:19:45.453Z,26.65
2024-02-20T23:22:12.235Z,26.30
2024-02-20T23:24:38.878Z,25.55
2024-02-20T23:27:05.602Z,22.30
2024-02-20T23:29:32.270Z,34.80
2024-02-20T23:31:59.106Z,24.45
2024-02-20T23:34:26.038Z,39.72
2024-02-20T23:36:52.917Z,37.10
2024-02-20T23:39:19.553Z,36.30
2024-02-20T23:41:46.203Z,30.42
2024-02-20T23:44:12.930Z,45.75
2024-02-20T23:46:39.609Z,37.33
2024-02-20T23:49:06.461Z,34.75
2024-02-20T23:51:33.180Z,50.17
2024-02-20T23:54:00.808Z,33.45
2024-02-20T23:56:27.508Z,47.80
2024-02-20T23:58:54.559Z,40.15
